Details for Austrian at LOWI




Go Back


Latest METAR
Local Time

LOWI 241320Z VRB02KT 9999 FEW015 OVC025 00/M05 Q1014 NOSIG

24/02/2018, 14:41:00

Description
Results
Austrian Logo
Number of Pilots based at LOWI
0 Pilots Based here
Number of Austrian Flights Departed from LOWI
1 Flights Departed
Number of Austrian Flights Arrived at LOWI
1 Flights Arrived
Number of Austrian Schedules Departing from LOWI
15 Schedules
Number of Austrian Schedules Arriving at LOWI
14 Schedules
Number of Austrian Schedules Departing from LOWI availible today
8 Schedules Today
Number of Austrian Schedules Arriving at LOWI availible today
10 Schedules Today
Average Landing Rate at LOWI
-259 fpm
Austrian Average Landing Rate at LOWI
-360 fpm
Total Fuel Purchased at LOWI by Austrian
713.95 kgs / 1,573.97 lbs

Pilots Based at LOWI


Pilot ID
Pilot Name
Pilot Rank
No. of Flights
No. of Flying Hours
There are no pilots assigned to this hub!   Will you be the first?
Content